Latest Weather Observations for Strahan

IDT60801

Issued at 5:01 pm EST Sunday 24 May 2015 (issued every 30 minutes, with the page automatically refreshed every 10 minutes)

About weather observations | Map of weather stations | Latest weather observations for TAS | Other Formats
Station Details ID: 097072 Name: STRAHAN AERODROME Lat: -42.16 Lon: 145.29 Height: 21.0 m
Data from the previous 72 hours. | See also: Recent months at Strahan
Date/Time
EST
Temp
°C
App
Temp
°C
Dew
Point
Rel
Hum
%
Delta-T
°C
Wind Press
QNH
hPa
Press
MSL
hPa
Rain
since 9 am
mm
Dir
 
Spd
km/h
Gust
km/h
Spd
kts
Gust
kts
24/05:00pm 9.9 7.4 6.4 79 1.6 NNE 9 13 5 7 1029.1 1029.1 0.0
24/04:30pm 10.2 8.0 6.0 75 1.9 NNE 7 9 4 5 1029.1 1029.1 0.0
24/04:00pm 10.5 8.2 5.7 72 2.2 N 7 9 4 5 1029.2 1029.2 0.0
24/03:30pm 10.8 8.6 6.2 73 2.1 NNW 7 9 4 5 1029.1 1029.1 0.0
24/03:00pm 10.6 8.2 5.4 70 2.4 NNW 7 11 4 6 1029.1 1029.1 0.0
24/02:30pm 10.7 7.9 5.0 68 2.6 NNW 9 11 5 6 1029.0 1029.0 0.0
24/02:00pm 11.6 9.2 5.3 65 2.9 NNE 7 13 4 7 1029.2 1029.2 0.0
24/01:30pm 11.4 9.2 5.3 66 2.8 NE 6 13 3 7 1029.4 1029.4 0.0
24/01:00pm 11.8 9.6 6.3 69 2.6 NE 7 9 4 5 1029.5 1029.5 0.0
24/12:30pm 11.1 8.2 6.5 73 2.1 NE 11 15 6 8 1029.7 1029.7 0.0
24/12:00pm 10.5 7.2 6.3 75 1.9 NE 13 17 7 9 1030.1 1030.1 0.0
24/11:30am 10.1 6.8 6.3 77 1.8 NE 13 19 7 10 1030.3 1030.3 0.0
24/11:00am 8.9 5.4 5.5 79 1.5 NE 13 20 7 11 1030.6 1030.6 0.0
24/10:30am 8.6 5.1 5.5 81 1.4 NE 13 19 7 10 1030.9 1030.9 0.0
24/10:00am 7.3 2.9 4.9 85 1.0 NE 17 24 9 13 1030.9 1030.9 0.0
24/09:30am 7.0 2.6 4.7 85 1.0 NE 17 22 9 12 1031.0 1031.0 0.0
24/09:00am 6.7 3.0 4.5 86 0.9 NE 13 17 7 9 1031.2 1031.2 0.0
24/08:30am 6.4 3.1 4.4 87 0.9 NE 11 17 6 9 1031.0 1031.0 0.0
24/08:00am 5.9 3.5 4.1 88 0.8 NE 6 11 3 6 1030.8 1030.8 0.0
24/07:30am 5.7 3.0 3.9 88 0.8 NE 7 13 4 7 1030.6 1030.6 0.0
24/07:00am 5.9 2.9 4.1 88 0.8 NNE 9 13 5 7 1030.5 1030.5 0.0
24/06:30am 5.9 3.2 3.9 87 0.8 NNE 7 9 4 5 1030.4 1030.4 0.0
24/06:00am 6.0 3.0 4.0 87 0.8 NE 9 13 5 7 1030.2 1030.2 0.0
24/05:30am 5.9 2.1 3.9 87 0.8 NNE 13 17 7 9 1030.2 1030.2 0.0
24/05:00am 5.9 2.1 3.9 87 0.8 NNE 13 17 7 9 1030.1 1030.1 0.0
24/04:30am 6.1 3.2 4.4 89 0.7 N 9 13 5 7 1030.0 1030.0 0.0
24/04:00am 6.0 2.7 4.3 89 0.7 NNE 11 15 6 8 1029.7 1029.7 0.0
24/03:30am 6.1 2.8 4.4 89 0.7 NNE 11 15 6 8 1029.8 1029.8 0.0
24/03:00am 6.2 2.9 4.5 89 0.7 NNE 11 15 6 8 1029.9 1029.9 0.0
24/02:30am 6.6 3.3 4.8 88 0.8 NNE 11 17 6 9 1030.0 1030.0 0.0
24/02:00am 6.8 4.0 5.1 89 0.7 ENE 9 13 5 7 1030.0 1030.0 0.0
24/01:30am 7.1 4.4 5.4 89 0.8 NE 9 13 5 7 1030.3 1030.3 0.0
24/01:00am 7.1 4.4 5.6 90 0.7 NNE 9 13 5 7 1030.4 1030.4 0.0
24/12:30am 7.2 4.1 5.7 90 0.7 NE 11 13 6 7 1030.4 1030.4 0.0
24/12:00am 7.3 4.7 5.9 91 0.6 NNE 9 11 5 6 1030.6 1030.6 0.0
 
Date/Time
EST
Temp
°C
App
Temp
°C
Dew
Point
Rel
Hum
%
Delta-T
°C
Wind Press
QNH
hPa
Press
MSL
hPa
Rain
since 9 am
mm
Dir
 
Spd
km/h
Gust
km/h
Spd
kts
Gust
kts
23/11:30pm 7.1 4.8 5.9 92 0.5 NE 7 11 4 6 1030.5 1030.5 0.0
23/11:00pm 7.1 5.0 6.0 93 0.5 N 6 9 3 5 1030.5 1030.5 0.0
23/10:30pm 7.1 5.4 5.9 92 0.5 NNE 4 7 2 4 1030.6 1030.6 0.0
23/10:00pm 7.0 5.7 5.8 92 0.5 ENE 2 9 1 5 1030.9 1030.9 0.0
23/09:30pm 6.8 5.4 5.4 91 0.6 S 2 6 1 3 1031.0 1031.0 0.0
23/09:00pm 7.0 4.9 5.6 91 0.6 NNE 6 9 3 5 1030.8 1030.8 0.0
23/08:30pm 7.1 4.8 5.7 91 0.6 NNE 7 7 4 4 1030.7 1030.7 0.0
23/08:00pm 6.8 4.1 5.4 91 0.6 ENE 9 11 5 6 1030.8 1030.8 0.0
23/07:30pm 7.5 6.6 6.0 90 0.7 CALM 0 0 0 0 1030.8 1030.8 0.0
23/07:00pm 8.1 7.3 6.4 89 0.8 CALM 0 0 0 0 1030.9 1030.9 0.0
23/06:30pm 8.5 7.0 6.6 88 0.9 ENE 4 6 2 3 1030.9 1030.9 0.0
23/06:00pm 8.8 8.1 6.8 87 0.9 CALM 0 0 0 0 1030.8 1030.8 0.0
23/05:30pm 9.4 8.6 6.5 82 1.3 CALM 0 0 0 0 1030.8 1030.8 0.0
23/05:00pm 9.8 7.6 6.2 78 1.7 S 7 7 4 4 1030.7 1030.7 0.0
23/04:30pm 10.2 7.7 6.4 77 1.8 SSW 9 11 5 6 1030.9 1030.9 0.0
23/04:00pm 10.5 7.5 5.9 73 2.1 SSW 11 15 6 8 1030.9 1030.9 0.0
23/03:30pm 11.2 8.3 6.5 73 2.2 SSW 11 13 6 7 1030.8 1030.8 0.0
23/03:00pm 11.2 8.2 6.1 71 2.4 SSW 11 15 6 8 1030.7 1030.7 0.0
23/02:30pm 11.4 8.4 5.9 69 2.6 S 11 13 6 7 1030.6 1030.6 0.0
23/02:00pm 12.2 9.3 6.3 67 2.8 SW 11 15 6 8 1030.7 1030.7 0.0
23/01:30pm 12.2 8.8 6.0 66 2.9 SW 13 17 7 9 1030.8 1030.8 0.0
23/01:00pm 12.3 7.8 5.9 65 3.0 WSW 19 26 10 14 1030.9 1030.9 0.0
23/12:30pm 11.5 7.7 6.0 69 2.6 SW 15 20 8 11 1031.1 1031.1 0.0
23/12:00pm 11.0 7.9 7.1 77 1.8 SW 13 17 7 9 1031.4 1031.4 0.0
23/11:30am 10.5 9.8 7.0 79 1.7 CALM 0 0 0 0 1031.7 1031.7 0.0
23/11:00am 9.9 9.5 8.3 90 0.8 CALM 0 2 0 1 1032.0 1032.0 0.0
23/10:30am 9.8 9.3 9.3 97 0.2 SE 2 7 1 4 1032.0 1032.0 0.0
23/10:00am 9.5 8.6 9.4 99 0.0 E 4 7 2 4 1032.0 1032.0 0.0
23/09:30am 8.6 7.1 8.5 99 0.0 ENE 6 9 3 5 1031.9 1031.9 0.0
23/09:00am 8.4 8.0 8.3 99 0.0 CALM 0 0 0 0 1031.8 1031.8 1.8
23/08:30am 7.8 5.9 7.7 99 0.0 N 7 9 4 5 1031.8 1031.8 1.8
23/08:00am 7.4 5.6 7.3 99 0.0 NNE 6 7 3 4 1031.6 1031.6 1.8
23/07:30am 7.2 5.4 7.1 99 0.0 ENE 6 7 3 4 1031.2 1031.2 1.8
23/07:00am 7.3 5.5 7.2 99 0.0 N 6 7 3 4 1031.1 1031.1 1.8
23/06:30am 7.3 5.3 7.2 99 0.0 NNE 7 11 4 6 1030.9 1030.9 1.8
23/06:00am 7.4 5.4 7.3 99 0.0 NE 7 9 4 5 1030.8 1030.8 1.8
23/05:30am 7.6 6.3 7.5 99 0.0 SE 4 9 2 5 1030.8 1030.8 1.8
23/05:00am 7.6 5.9 7.5 99 0.0 ENE 6 9 3 5 1030.6 1030.6 1.8
23/04:30am 7.7 5.4 7.6 99 0.0 NNE 9 13 5 7 1030.4 1030.4 1.8
23/04:00am 7.5 5.8 7.4 99 0.0 NE 6 9 3 5 1030.4 1030.4 1.8
23/03:30am 7.6 5.3 7.5 99 0.0 NNE 9 13 5 7 1030.5 1030.5 1.8
23/03:00am 7.6 5.7 7.5 99 0.0 NNE 7 11 4 6 1030.7 1030.7 1.8
23/02:30am 7.6 5.3 7.5 99 0.0 NNE 9 11 5 6 1030.8 1030.8 1.8
23/02:00am 7.6 5.7 7.5 99 0.0 NE 7 9 4 5 1030.9 1030.9 1.8
23/01:30am 7.5 5.8 7.4 99 0.0 ENE 6 6 3 3 1031.1 1031.1 1.8
23/01:00am 7.6 5.7 7.5 99 0.0 NNE 7 9 4 5 1031.1 1031.1 1.8
23/12:30am 7.5 5.8 7.4 99 0.0 NE 6 7 3 4 1031.1 1031.1 1.8
23/12:00am 7.6 5.7 7.5 99 0.0 NNE 7 9 4 5 1031.1 1031.1 1.8
 
Date/Time
EST
Temp
°C
App
Temp
°C
Dew
Point
Rel
Hum
%
Delta-T
°C
Wind Press
QNH
hPa
Press
MSL
hPa
Rain
since 9 am
mm
Dir
 
Spd
km/h
Gust
km/h
Spd
kts
Gust
kts
22/11:30pm 7.5 5.6 7.4 99 0.0 NNE 7 9 4 5 1031.1 1031.1 1.8
22/11:00pm 7.7 6.0 7.6 99 0.0 ENE 6 9 3 5 1031.3 1031.3 1.8
22/10:30pm 7.6 5.3 7.5 99 0.0 E 9 9 5 5 1031.4 1031.4 1.8
22/10:22pm 7.8 5.9 7.7 99 0.0 E 7 11 4 6 1031.4 1031.4 1.8
22/10:19pm 7.8 5.9 7.7 99 0.0 E 7 11 4 6 1031.4 1031.4 1.8
22/10:00pm 8.1 6.9 8.0 99 0.0 E 4 7 2 4 1031.4 1031.4 1.8
22/09:44pm 8.3 7.8 8.0 98 0.1 CALM 0 0 0 0 1031.5 1031.5 1.6
22/09:40pm 8.3 7.8 8.0 98 0.1 CALM 0 0 0 0 1031.5 1031.5 1.4
22/09:39pm 8.3 7.8 8.0 98 0.1 CALM 0 0 0 0 1031.5 1031.5 1.4
22/09:38pm 8.3 7.8 8.0 98 0.1 CALM 0 0 0 0 1031.5 1031.5 1.4
22/09:30pm 8.2 7.3 7.9 98 0.1 SSW 2 6 1 3 1031.4 1031.4 1.4
22/09:13pm 7.9 7.3 7.5 97 0.2 CALM 0 0 0 0 1031.4 1031.4 1.2
22/09:09pm 7.9 7.3 7.5 97 0.2 CALM 0 0 0 0 1031.4 1031.4 1.0
22/09:00pm 8.0 7.4 7.6 97 0.2 CALM 0 6 0 3 1031.4 1031.4 1.0
22/08:56pm 8.0 7.1 7.6 97 0.2 NW 2 7 1 4 1031.4 1031.4 1.0
22/08:43pm 7.9 6.1 7.3 96 0.3 NNE 6 13 3 7 1031.4 1031.4 0.6
22/08:30pm 7.8 6.0 7.2 96 0.3 ENE 6 9 3 5 1031.3 1031.3 0.6
22/08:00pm 7.9 7.2 7.1 95 0.4 CALM 0 0 0 0 1031.1 1031.1 0.6
22/07:30pm 8.0 6.2 7.1 94 0.4 SSW 6 7 3 4 1031.0 1031.0 0.6
22/07:00pm 8.3 4.5 7.4 94 0.4 SW 17 24 9 13 1030.8 1030.8 0.4
22/06:30pm 8.3 6.0 7.4 94 0.4 SW 9 13 5 7 1030.6 1030.6 0.4
22/06:23pm 8.6 6.9 7.7 94 0.4 SSW 6 9 3 5 1030.7 1030.7 0.4
22/06:00pm 8.6 7.3 7.5 93 0.5 SSW 4 6 2 3 1030.6 1030.6 0.2
22/05:30pm 9.0 6.0 7.5 90 0.7 SSW 13 15 7 8 1030.6 1030.6 0.0
22/05:26pm 9.1 6.4 7.2 88 0.9 SSW 11 15 6 8 1030.5 1030.5 0.0
22/05:00pm 9.8 6.6 6.7 81 1.4 WSW 13 19 7 10 1030.3 1030.3 0.0
22/04:30pm 10.3 8.6 6.1 75 1.9 SSW 4 6 2 3 1030.3 1030.3 0.0
22/04:00pm 10.5 8.2 5.7 72 2.2 SW 7 11 4 6 1030.3 1030.3 0.0
22/03:30pm 10.6 6.2 4.7 67 2.7 SW 17 22 9 12 1030.2 1030.2 0.0
22/03:00pm 10.8 7.0 6.0 72 2.2 SSW 15 20 8 11 1030.1 1030.1 0.0
22/02:30pm 11.2 8.1 5.7 69 2.5 SSW 11 15 6 8 1030.0 1030.0 0.0
22/02:00pm 11.1 7.3 5.8 70 2.4 SSW 15 22 8 12 1030.0 1030.0 0.0
22/01:30pm 11.2 9.0 5.3 67 2.7 SW 6 9 3 5 1029.9 1029.9 0.0
22/01:00pm 11.0 10.0 5.5 69 2.5 CALM 0 0 0 0 1030.1 1030.1 0.0
22/12:30pm 10.7 9.5 4.8 67 2.7 CALM 0 6 0 3 1030.3 1030.3 0.0
22/12:00pm 10.8 8.4 5.1 68 2.6 E 7 11 4 6 1030.6 1030.6 0.0
22/11:30am 10.4 8.1 4.8 68 2.5 ENE 6 7 3 4 1031.0 1031.0 0.0
22/11:00am 9.7 7.5 5.3 74 2.0 ENE 6 9 3 5 1031.1 1031.1 0.0
22/10:30am 9.5 7.4 5.9 78 1.7 E 6 7 3 4 1031.0 1031.0 0.0
22/10:00am 8.8 6.6 6.1 83 1.2 E 7 9 4 5 1030.9 1030.9 0.0
22/09:30am 8.4 6.5 6.5 88 0.9 ENE 6 7 3 4 1030.9 1030.9 0.0
22/09:00am 8.0 6.7 6.1 88 0.9 ESE 2 7 1 4 1030.9 1030.9 0.0
22/08:30am 7.7 5.4 5.7 87 0.9 SW 7 9 4 5 1030.7 1030.7 0.0
22/08:00am 7.3 6.3 5.6 89 0.8 CALM 0 0 0 0 1030.4 1030.4 0.0
22/07:30am 7.2 5.8 5.5 89 0.8 WSW 2 6 1 3 1030.2 1030.2 0.0
22/07:00am 7.1 6.1 5.4 89 0.7 CALM 0 0 0 0 1030.1 1030.1 0.0
22/06:30am 7.2 5.4 5.2 87 0.9 NE 4 7 2 4 1029.7 1029.7 0.0
22/06:00am 7.3 5.0 4.9 85 1.0 NE 6 7 3 4 1029.5 1029.5 0.0
22/05:30am 7.1 4.8 4.8 85 1.0 ENE 6 7 3 4 1029.5 1029.5 0.0
22/05:00am 7.1 5.6 4.8 85 1.0 NE 2 6 1 3 1029.5 1029.5 0.0
22/04:30am 7.2 4.9 4.7 84 1.1 NW 6 6 3 3 1029.3 1029.3 0.0
22/04:00am 7.3 5.0 4.8 84 1.1 WNW 6 7 3 4 1029.3 1029.3 0.0
22/03:30am 7.3 4.9 4.4 82 1.3 NNE 6 7 3 4 1029.3 1029.3 0.0
22/03:00am 7.4 5.0 4.4 81 1.3 NNE 6 7 3 4 1029.3 1029.3 0.0
22/02:30am 7.9 5.4 3.8 75 1.8 NNE 6 7 3 4 1029.3 1029.3 0.0
22/02:00am 7.9 5.4 3.8 75 1.8 ENE 6 7 3 4 1029.2 1029.2 0.0
22/01:30am 7.7 4.7 4.3 79 1.5 E 9 11 5 6 1029.3 1029.3 0.0
22/01:00am 7.7 4.4 4.5 80 1.4 ESE 11 13 6 7 1029.4 1029.4 0.0
22/12:30am 7.7 4.4 4.5 80 1.4 ESE 11 13 6 7 1029.5 1029.5 0.0
22/12:00am 7.7 4.5 5.0 83 1.2 ESE 11 15 6 8 1029.3 1029.3 0.0
 
Date/Time
EST
Temp
°C
App
Temp
°C
Dew
Point
Rel
Hum
%
Delta-T
°C
Wind Press
QNH
hPa
Press
MSL
hPa
Rain
since 9 am
mm
Dir
 
Spd
km/h
Gust
km/h
Spd
kts
Gust
kts
21/11:30pm 7.3 4.5 5.3 87 0.9 ESE 9 11 5 6 1029.3 1029.3 0.0
21/11:00pm 7.1 4.4 5.4 89 0.7 ESE 9 11 5 6 1029.3 1029.3 0.0
21/10:30pm 6.5 4.0 4.8 89 0.7 SSE 7 11 4 6 1029.4 1029.4 0.0
21/10:00pm 6.2 3.7 4.0 86 0.9 SSE 6 9 3 5 1029.4 1029.4 0.0
21/09:30pm 6.9 4.3 4.4 84 1.1 SE 7 9 4 5 1029.3 1029.3 0.0
21/09:00pm 6.8 4.3 3.6 80 1.3 SSE 6 9 3 5 1029.1 1029.1 0.0
21/08:30pm 8.0 4.3 4.2 77 1.7 S 13 15 7 8 1028.9 1028.9 0.0
21/08:00pm 8.6 4.9 4.2 74 1.9 S 13 19 7 10 1028.8 1028.8 0.0
21/07:30pm 9.0 4.9 4.6 74 2.0 S 15 20 8 11 1028.5 1028.5 0.0
21/07:00pm 8.8 5.3 5.4 79 1.5 S 13 17 7 9 1028.2 1028.2 0.0
21/06:30pm 8.5 4.9 4.9 78 1.6 S 13 17 7 9 1027.9 1027.9 0.0
21/06:00pm 8.6 5.0 4.8 77 1.7 S 13 20 7 11 1027.7 1027.7 0.0
21/05:30pm 8.7 5.0 4.7 76 1.8 S 13 19 7 10 1027.3 1027.3 0.0

Other Formats:

Comma delimited format used in spreadsheet applications
http://www.bom.gov.au/fwo/IDT60801/IDT60801.94956.axf

JavaScript Object Notation format (JSON) in row-major order
http://www.bom.gov.au/fwo/IDT60801/IDT60801.94956.json